Time;durP1;ratioP1;P1;durP2;ratioP2;P2;SDS_P1;SDS_P2;PMS_P1;PMS_P2;Temp;Humidity;BMP_temperature;BMP_pressure;BME280_temperature;BME280_humidity;BME280_pressure;Samples;Min_cycle;Max_cycle;Signal;HPM_P1;HPM_P2
2021/03/02 05:21:48;;;;;;;14.60;8.02;;;-0.50;99.90;;;;;;5506805;23;20147;-79
2021/03/02 05:24:14;;;;;;;13.73;7.43;;;-0.50;99.90;;;;;;4904085;29;20095;-77
2021/03/02 05:26:41;;;;;;;14.30;7.75;;;-0.50;99.90;;;;;;4912594;29;20059;-77
2021/03/02 05:29:07;;;;;;;15.40;9.05;;;-0.50;99.90;;;;;;4881546;29;20041;-77
2021/03/02 05:31:33;;;;;;;18.73;8.52;;;-0.50;99.90;;;;;;4911023;29;20107;-77
2021/03/02 05:33:59;;;;;;;16.67;8.63;;;-0.50;99.90;;;;;;4899926;29;20151;-78
2021/03/02 05:36:26;;;;;;;14.70;8.05;;;-0.50;99.90;;;;;;4898892;29;20048;-78
2021/03/02 05:38:52;;;;;;;15.18;8.68;;;-0.50;99.90;;;;;;4899153;29;20482;-77
2021/03/02 05:41:19;;;;;;;14.88;8.48;;;-0.50;99.90;;;;;;4894907;29;20423;-77
2021/03/02 05:43:45;;;;;;;15.18;8.82;;;-0.60;99.90;;;;;;4901442;29;20071;-78
2021/03/02 05:46:12;;;;;;;19.65;8.75;;;-0.60;99.90;;;;;;4900299;29;20107;-78
2021/03/02 05:48:42;;;;;;;15.90;9.48;;;-0.70;99.90;;;;;;4890291;29;20055;-79
2021/03/02 05:51:14;;;;;;;21.25;10.98;;;-0.70;99.90;;;;;;4878718;29;20061;-77
2021/03/02 05:53:40;;;;;;;20.63;11.57;;;-0.70;99.90;;;;;;4877715;29;20139;-79
2021/03/02 05:56:13;;;;;;;20.98;11.07;;;-0.70;99.90;;;;;;4880527;29;20044;-77
2021/03/02 05:58:44;;;;;;;19.58;11.75;;;-0.70;99.90;;;;;;4899083;29;20103;-78
2021/03/02 06:01:10;;;;;;;16.63;9.88;;;-0.70;99.90;;;;;;4905189;29;20059;-77
2021/03/02 06:03:41;;;;;;;16.42;8.88;;;-0.70;99.90;;;;;;4899702;29;20419;-77
2021/03/02 06:06:13;;;;;;;12.23;7.75;;;-0.70;99.90;;;;;;4914441;29;20055;-77
2021/03/02 06:08:39;;;;;;;13.20;7.63;;;-0.80;99.90;;;;;;4898996;29;20094;-77
2021/03/02 06:11:28;;;;;;;16.48;7.47;;;-0.70;99.90;;;;;;4898421;29;20046;-77
2021/03/02 06:14:23;;;;;;;13.27;7.85;;;-0.70;99.90;;;;;;4891685;29;20066;-77
2021/03/02 06:16:56;;;;;;;12.10;6.60;;;-0.70;99.90;;;;;;4880891;29;20076;-77
2021/03/02 06:19:44;;;;;;;11.90;7.25;;;-0.70;99.90;;;;;;4880154;29;20052;-76
2021/03/02 06:22:39;;;;;;;12.95;7.70;;;-0.60;99.90;;;;;;4894053;29;20579;-76
2021/03/02 06:25:31;;;;;;;18.25;8.02;;;-0.60;99.90;;;;;;4894254;29;20054;-76
2021/03/02 06:28:02;;;;;;;14.20;9.05;;;-0.70;99.90;;;;;;4915363;29;20123;-76
2021/03/02 06:30:29;;;;;;;12.90;8.05;;;-0.70;99.90;;;;;;4914745;29;20079;-75
2021/03/02 06:32:56;;;;;;;17.15;8.82;;;-0.70;99.90;;;;;;4914211;29;20143;-76
2021/03/02 06:35:42;;;;;;;11.98;7.65;;;-0.70;99.90;;;;;;4899661;29;20086;-76
2021/03/02 06:38:09;;;;;;;13.10;7.72;;;-0.60;99.90;;;;;;4884272;29;20075;-76
2021/03/02 06:40:48;;;;;;;13.18;8.32;;;-0.60;99.90;;;;;;4890055;29;20131;-76
2021/03/02 06:43:35;;;;;;;18.25;9.68;;;-0.60;99.90;;;;;;4891970;29;20136;-76
2021/03/02 06:46:10;;;;;;;17.15;8.73;;;-0.60;99.90;;;;;;4892032;29;20474;-77
2021/03/02 06:48:59;;;;;;;18.52;9.95;;;-0.60;99.90;;;;;;4890406;29;20063;-78
2021/03/02 06:51:34;;;;;;;19.63;10.07;;;-0.60;99.90;;;;;;4880038;29;20044;-78
2021/03/02 06:54:12;;;;;;;30.10;14.77;;;-0.60;99.90;;;;;;4893898;29;20479;-78
2021/03/02 06:56:39;;;;;;;29.33;14.75;;;-0.60;99.90;;;;;;4893073;29;20062;-78
2021/03/02 06:59:20;;;;;;;27.67;13.48;;;-0.60;99.90;;;;;;4901989;29;20071;-78
2021/03/02 07:01:51;;;;;;;26.13;16.08;;;-0.50;99.90;;;;;;4888155;29;20054;-79
2021/03/02 07:04:19;;;;;;;26.80;14.98;;;-0.50;99.90;;;;;;4894814;29;20525;-78
2021/03/02 07:06:58;;;;;;;24.65;14.60;;;-0.50;99.90;;;;;;4888943;29;20047;-79
2021/03/02 07:09:25;;;;;;;;;;;-0.50;99.90;;;;;;4890604;29;20048;-78
2021/03/02 07:11:56;;;;;;;23.67;14.70;;;-0.40;99.90;;;;;;4900964;29;20413;-78
2021/03/02 07:14:27;;;;;;;21.60;13.73;;;-0.40;99.90;;;;;;4875423;29;20049;-79
2021/03/02 07:16:55;;;;;;;24.17;14.93;;;-0.30;99.90;;;;;;4882348;29;20062;-79
2021/03/02 07:19:27;;;;;;;30.30;15.52;;;-0.30;99.90;;;;;;4894084;29;20044;-79
2021/03/02 07:21:59;;;;;;;31.90;17.33;;;-0.20;99.90;;;;;;4878529;29;20048;-78
2021/03/02 07:24:32;;;;;;;34.10;17.48;;;-0.20;99.90;;;;;;4880350;29;20153;-78
2021/03/02 07:27:02;;;;;;;30.45;17.30;;;-0.10;99.90;;;;;;4879270;29;20143;-79
2021/03/02 07:29:29;;;;;;;40.30;18.63;;;-0.10;99.90;;;;;;4885179;29;20122;-78
2021/03/02 07:32:02;;;;;;;33.92;19.27;;;-0.10;99.90;;;;;;4898654;29;20071;-78
2021/03/02 07:34:28;;;;;;;34.97;20.95;;;0.00;99.90;;;;;;4898138;29;20107;-79
2021/03/02 07:36:55;;;;;;;32.10;17.10;;;0.00;99.90;;;;;;4896423;29;20086;-78
2021/03/02 07:39:27;;;;;;;26.85;13.82;;;0.10;99.90;;;;;;4895095;29;20139;-79
2021/03/02 07:41:54;;;;;;;21.55;12.52;;;0.20;99.90;;;;;;4914016;29;20052;-78
2021/03/02 07:44:20;;;;;;;21.80;11.90;;;0.20;99.90;;;;;;4913940;29;20048;-78
2021/03/02 07:46:56;;;;;;;20.70;11.95;;;0.30;99.90;;;;;;4914177;29;20522;-79
2021/03/02 07:49:22;;;;;;;20.23;12.07;;;0.30;99.90;;;;;;4914395;29;20142;-78
2021/03/02 07:51:56;;;;;;;19.92;11.75;;;0.40;99.90;;;;;;4913854;29;20139;-77
2021/03/02 07:54:35;;;;;;;20.73;11.93;;;0.50;99.90;;;;;;4899264;29;20498;-77
2021/03/02 07:57:14;;;;;;;19.58;12.40;;;0.60;99.90;;;;;;4914203;29;20044;-77
2021/03/02 07:59:43;;;;;;;21.48;11.60;;;0.60;99.90;;;;;;4890256;29;20079;-77
2021/03/02 08:02:14;;;;;;;21.73;11.70;;;0.70;99.90;;;;;;4913059;29;20056;-77
2021/03/02 08:04:48;;;;;;;22.77;12.27;;;0.80;99.90;;;;;;4912995;29;20407;-77
2021/03/02 08:07:28;;;;;;;21.88;11.68;;;0.90;99.90;;;;;;4902259;29;20045;-77
2021/03/02 08:09:59;;;;;;;24.25;12.07;;;1.00;99.90;;;;;;4877733;29;20040;-77
2021/03/02 08:12:32;;;;;;;19.13;11.68;;;1.10;99.90;;;;;;4893296;29;20045;-77
2021/03/02 08:15:18;;;;;;;17.80;10.48;;;1.20;99.90;;;;;;4918454;29;20509;-77
2021/03/02 08:17:49;;;;;;;17.98;11.40;;;1.30;99.90;;;;;;4890113;29;20439;-77
2021/03/02 08:20:21;;;;;;;19.42;11.95;;;1.30;99.90;;;;;;4879205;29;20045;-77
2021/03/02 08:22:48;;;;;;;17.60;11.27;;;1.40;99.90;;;;;;4881204;29;20855;-77
2021/03/02 08:25:27;;;;;;;20.23;11.27;;;1.50;99.90;;;;;;4894365;29;20052;-77
2021/03/02 08:28:00;;;;;;;25.63;11.55;;;1.50;99.90;;;;;;4875865;29;20145;-78
2021/03/02 08:30:38;;;;;;;21.80;12.23;;;1.60;99.90;;;;;;4878662;29;20045;-77
2021/03/02 08:33:18;;;;;;;19.27;12.07;;;1.70;99.90;;;;;;4878785;29;20411;-78
2021/03/02 08:35:52;;;;;;;22.77;12.70;;;1.80;99.90;;;;;;4878123;29;20071;-77
2021/03/02 08:38:23;;;;;;;27.73;12.65;;;1.90;99.90;;;;;;4892400;29;20152;-78
2021/03/02 08:40:49;;;;;;;19.13;12.20;;;2.00;99.90;;;;;;4878257;29;20056;-78
2021/03/02 08:43:24;;;;;;;22.00;13.05;;;2.10;99.90;;;;;;4878552;29;20055;-78
2021/03/02 08:46:00;;;;;;;23.70;12.73;;;2.20;99.90;;;;;;4878406;29;20047;-77
2021/03/02 08:48:33;;;;;;;24.25;13.90;;;2.30;99.90;;;;;;4874325;29;20041;-77
2021/03/02 08:51:06;;;;;;;23.40;13.48;;;2.40;99.90;;;;;;4875374;29;20132;-78
2021/03/02 08:53:41;;;;;;;16.40;9.95;;;2.50;99.90;;;;;;4875346;29;20048;-78
2021/03/02 08:56:14;;;;;;;21.17;13.05;;;2.60;99.90;;;;;;4889525;29;20049;-78
2021/03/02 08:58:48;;;;;;;15.03;9.37;;;2.70;99.90;;;;;;4874215;29;20484;-77
2021/03/02 09:01:23;;;;;;;22.58;12.55;;;2.80;99.90;;;;;;4875608;29;20153;-77
2021/03/02 09:04:16;;;;;;;23.20;13.20;;;2.90;99.90;;;;;;4874090;29;20056;-78
2021/03/02 09:06:49;;;;;;;20.90;12.38;;;3.00;99.90;;;;;;4875189;29;20045;-79
2021/03/02 09:09:22;;;;;;;20.05;12.48;;;3.10;99.90;;;;;;4874586;29;20068;-78
2021/03/02 09:11:55;;;;;;;20.10;13.00;;;3.20;99.90;;;;;;4874600;29;20525;-77
2021/03/02 09:14:36;;;;;;;19.27;12.70;;;3.30;99.90;;;;;;4874188;29;20048;-79
2021/03/02 09:17:07;;;;;;;22.65;12.73;;;3.40;99.90;;;;;;4874723;29;20057;-78
2021/03/02 09:19:41;;;;;;;19.48;12.70;;;3.50;99.90;;;;;;4877631;29;20755;-78
2021/03/02 09:22:12;;;;;;;22.52;13.93;;;3.60;99.90;;;;;;4876985;29;20049;-78
2021/03/02 09:24:57;;;;;;;21.90;13.25;;;3.70;99.90;;;;;;4892743;29;20055;-78
2021/03/02 09:27:32;;;;;;;21.95;12.95;;;3.80;99.90;;;;;;4887148;29;20044;-81
2021/03/02 09:29:59;;;;;;;22.58;13.75;;;4.00;99.90;;;;;;4911896;29;20048;-80
2021/03/02 09:32:32;;;;;;;21.27;12.80;;;4.10;99.90;;;;;;4912537;29;20143;-81
2021/03/02 09:35:07;;;;;;;21.55;13.20;;;4.20;99.90;;;;;;4912697;29;20119;-80
2021/03/02 09:37:39;;;;;;;21.70;14.45;;;4.30;99.90;;;;;;4905792;29;20059;-81
2021/03/02 09:40:08;;;;;;;20.02;12.85;;;4.40;99.90;;;;;;4878480;29;20080;-81
2021/03/02 09:42:42;;;;;;;17.30;12.35;;;4.50;99.90;;;;;;4893834;29;20062;-81
2021/03/02 09:45:14;;;;;;;23.27;16.15;;;4.60;99.90;;;;;;4893714;29;20139;-81
2021/03/02 09:47:56;;;;;;;20.20;12.02;;;4.70;99.90;;;;;;4884547;29;20044;-81
2021/03/02 09:50:36;;;;;;;19.73;12.65;;;4.90;99.90;;;;;;4860808;29;20136;-81
2021/03/02 09:53:14;;;;;;;20.98;12.95;;;5.00;99.90;;;;;;4860446;29;20132;-81
2021/03/02 09:55:47;;;;;;;19.65;13.35;;;5.10;99.90;;;;;;4860575;29;20073;-81
2021/03/02 09:58:20;;;;;;;18.55;13.35;;;5.20;99.90;;;;;;4874417;29;20135;-81
2021/03/02 10:00:54;;;;;;;19.17;11.93;;;5.30;99.90;;;;;;4899725;29;20135;-81
2021/03/02 10:03:36;;;;;;;21.17;13.50;;;5.40;99.90;;;;;;4898669;29;20503;-81
2021/03/02 10:06:07;;;;;;;19.98;11.55;;;5.60;99.90;;;;;;4912943;29;20072;-81
2021/03/02 10:08:43;;;;;;;19.58;12.30;;;5.70;99.90;;;;;;4897443;29;20067;-81
2021/03/02 10:11:14;;;;;;;21.85;13.32;;;5.80;99.90;;;;;;4912777;29;20048;-80
2021/03/02 10:13:46;;;;;;;23.55;12.30;;;5.90;99.90;;;;;;4897377;29;20139;-80
2021/03/02 10:16:38;;;;;;;18.48;12.30;;;6.00;99.90;;;;;;4915116;29;20048;-81
2021/03/02 10:19:21;;;;;;;18.55;13.27;;;6.10;99.90;;;;;;4884473;29;20101;-80
2021/03/02 10:21:53;;;;;;;17.15;11.15;;;6.20;99.90;;;;;;4882344;29;20044;-81
2021/03/02 10:24:36;;;;;;;18.05;13.10;;;6.30;99.90;;;;;;4876988;29;20044;-81
2021/03/02 10:27:18;;;;;;;18.55;12.43;;;6.50;99.90;;;;;;4878157;29;20081;-82
2021/03/02 10:29:50;;;;;;;21.52;13.02;;;6.60;99.90;;;;;;4882301;29;20087;-80
2021/03/02 10:32:16;;;;;;;21.00;13.48;;;6.80;99.90;;;;;;4878293;29;20049;-81
2021/03/02 10:34:49;;;;;;;22.20;13.55;;;6.90;99.90;;;;;;4864472;29;20049;-81
2021/03/02 10:37:18;;;;;;;22.50;12.95;;;7.00;99.90;;;;;;4894467;29;20089;-81
2021/03/02 10:39:47;;;;;;;22.88;14.15;;;7.10;99.90;;;;;;4863469;29;20057;-81
2021/03/02 10:42:14;;;;;;;23.00;13.35;;;7.20;99.90;;;;;;4894541;29;20060;-81
2021/03/02 10:44:40;;;;;;;20.48;13.95;;;7.30;99.90;;;;;;4864818;29;20052;-81
2021/03/02 10:47:07;;;;;;;22.20;13.80;;;7.40;99.90;;;;;;4899527;29;20145;-81
2021/03/02 10:49:38;;;;;;;20.35;14.10;;;7.50;99.90;;;;;;4902743;29;20107;-81
2021/03/02 10:52:10;;;;;;;22.77;13.55;;;7.60;99.90;;;;;;4882950;29;20409;-81
2021/03/02 10:54:36;;;;;;;21.42;14.63;;;7.70;99.90;;;;;;4907056;29;20603;-80
2021/03/02 10:57:03;;;;;;;20.23;13.90;;;7.80;99.90;;;;;;4900465;29;20515;-81
2021/03/02 10:59:29;;;;;;;19.35;13.70;;;7.80;99.90;;;;;;4900448;29;20063;-81
2021/03/02 11:01:57;;;;;;;22.75;14.80;;;8.00;99.90;;;;;;4916057;29;20156;-81
2021/03/02 11:04:28;;;;;;;22.17;14.30;;;8.00;99.90;;;;;;4901452;29;20077;-81
2021/03/02 11:07:00;;;;;;;22.05;14.45;;;8.10;99.90;;;;;;4901591;29;20044;-82
2021/03/02 11:09:31;;;;;;;19.10;13.57;;;8.20;99.90;;;;;;4908391;29;20111;-81
2021/03/02 11:12:03;;;;;;;20.45;14.18;;;8.30;99.90;;;;;;4882274;29;20385;-81
2021/03/02 11:14:34;;;;;;;29.58;15.05;;;8.40;99.90;;;;;;4882475;29;20052;-81
2021/03/02 11:17:01;;;;;;;20.88;14.55;;;8.50;99.90;;;;;;4892608;29;20462;-81
2021/03/02 11:19:32;;;;;;;21.33;14.15;;;8.50;99.90;;;;;;4915533;29;20044;-81
2021/03/02 11:22:04;;;;;;;22.00;14.95;;;8.60;99.90;;;;;;4900967;29;20075;-81
2021/03/02 11:24:35;;;;;;;23.17;14.93;;;8.70;99.90;;;;;;4897615;29;20133;-81
2021/03/02 11:27:01;;;;;;;30.73;19.50;;;8.90;99.90;;;;;;4896706;29;20052;-81
2021/03/02 11:29:35;;;;;;;23.45;14.60;;;9.10;99.90;;;;;;4896177;29;20585;-82
2021/03/02 11:32:07;;;;;;;20.92;14.32;;;9.10;99.90;;;;;;4897216;29;20044;-81
2021/03/02 11:34:34;;;;;;;20.23;14.43;;;9.20;99.90;;;;;;4915061;29;20052;-81
2021/03/02 11:37:01;;;;;;;23.65;15.68;;;9.40;99.90;;;;;;4915115;29;20059;-80
2021/03/02 11:39:27;;;;;;;19.95;15.18;;;9.50;99.90;;;;;;4916414;29;20200;-81
2021/03/02 11:41:59;;;;;;;25.58;15.38;;;9.60;99.90;;;;;;4917335;29;20150;-81
2021/03/02 11:44:25;;;;;;;21.25;13.77;;;9.60;99.90;;;;;;4914582;29;20040;-81
2021/03/02 11:46:58;;;;;;;20.63;14.65;;;9.70;99.90;;;;;;4906906;29;20048;-80
2021/03/02 11:49:29;;;;;;;20.63;14.95;;;9.70;99.90;;;;;;4880002;29;20093;-81
2021/03/02 11:51:55;;;;;;;20.95;14.48;;;9.90;99.90;;;;;;4878924;29;20049;-81
2021/03/02 11:54:22;;;;;;;21.88;14.15;;;10.00;99.90;;;;;;4880650;29;20520;-80
2021/03/02 11:56:48;;;;;;;19.50;14.60;;;10.10;99.90;;;;;;4876431;29;20683;-81
2021/03/02 11:59:19;;;;;;;20.63;14.77;;;10.20;99.90;;;;;;4877383;29;20148;-81
2021/03/02 12:01:46;;;;;;;21.13;13.82;;;10.30;99.90;;;;;;4861907;29;20100;-81
2021/03/02 12:04:12;;;;;;;21.08;15.68;;;10.40;99.90;;;;;;4896355;29;20044;-80
2021/03/02 12:06:43;;;;;;;24.92;15.20;;;10.50;99.90;;;;;;4887235;29;20135;-81
2021/03/02 12:09:17;;;;;;;19.30;14.90;;;10.60;99.90;;;;;;4890612;29;20060;-81
2021/03/02 12:11:43;;;;;;;20.42;14.60;;;10.70;99.90;;;;;;4875772;29;20425;-81
2021/03/02 12:14:15;;;;;;;24.85;15.27;;;10.80;99.90;;;;;;4878561;29;20049;-79
2021/03/02 12:16:42;;;;;;;21.25;15.10;;;10.90;99.90;;;;;;4878668;29;20049;-80
2021/03/02 12:19:14;;;;;;;26.75;15.52;;;10.90;99.90;;;;;;4893513;29;20461;-80
2021/03/02 12:21:45;;;;;;;23.52;16.00;;;11.00;99.90;;;;;;4878553;29;20424;-80
2021/03/02 12:24:18;;;;;;;24.10;15.50;;;11.00;99.90;;;;;;4893786;29;20049;-80
2021/03/02 12:26:52;;;;;;;24.30;16.88;;;11.00;98.80;;;;;;4863758;29;20049;-80
2021/03/02 12:29:21;;;;;;;22.50;15.15;;;11.00;99.10;;;;;;5293233;23;20093;-80
2021/03/02 12:31:53;;;;;;;23.58;16.20;;;11.00;98.50;;;;;;4932411;29;20082;-80
2021/03/02 12:34:25;;;;;;;23.83;15.30;;;11.10;99.60;;;;;;4935016;29;20043;-80
2021/03/02 12:36:56;;;;;;;20.38;14.00;;;11.20;98.50;;;;;;4934544;29;20526;-80
2021/03/02 12:39:23;;;;;;;23.17;16.35;;;11.30;98.10;;;;;;4918006;29;20047;-80
2021/03/02 12:41:55;;;;;;;24.77;15.38;;;11.30;97.50;;;;;;4919340;29;20079;-79
2021/03/02 12:44:27;;;;;;;26.10;15.13;;;11.40;97.70;;;;;;4934374;29;20475;-80
2021/03/02 12:46:59;;;;;;;22.95;14.68;;;11.50;96.60;;;;;;4934776;29;20040;-80
2021/03/02 12:49:25;;;;;;;18.83;14.05;;;11.60;97.40;;;;;;4917994;29;20043;-80
2021/03/02 12:51:57;;;;;;;21.65;15.80;;;11.70;96.40;;;;;;4934463;29;20063;-79
2021/03/02 12:54:30;;;;;;;21.08;14.50;;;11.80;97.10;;;;;;4934285;29;20058;-80
2021/03/02 12:56:56;;;;;;;19.95;14.80;;;11.90;96.10;;;;;;4918586;29;20047;-80
2021/03/02 12:59:23;;;;;;;23.92;15.88;;;12.00;95.20;;;;;;4918410;29;20400;-80
2021/03/02 13:01:56;;;;;;;19.90;15.07;;;12.10;93.40;;;;;;4928704;29;20051;-80
2021/03/02 13:04:24;;;;;;;20.92;15.07;;;12.10;92.70;;;;;;4915347;29;20530;-80
2021/03/02 13:06:52;;;;;;;21.65;15.13;;;12.20;93.40;;;;;;4930738;29;20412;-80
2021/03/02 13:09:20;;;;;;;20.80;15.20;;;12.20;92.50;;;;;;4932413;29;20126;-80
2021/03/02 13:11:52;;;;;;;21.33;15.23;;;12.20;92.20;;;;;;4918138;29;20103;-80
2021/03/02 13:14:24;;;;;;;20.30;14.88;;;12.30;92.50;;;;;;4916926;29;20134;-79
2021/03/02 13:16:51;;;;;;;21.73;14.95;;;12.50;91.30;;;;;;4917470;29;20052;-79
2021/03/02 13:19:23;;;;;;;20.52;15.02;;;12.50;90.80;;;;;;4925739;29;20103;-80
2021/03/02 13:21:54;;;;;;;21.35;15.38;;;12.50;90.60;;;;;;4918386;29;20106;-79
2021/03/02 13:24:26;;;;;;;21.50;15.95;;;12.50;89.90;;;;;;4918286;29;20118;-80
2021/03/02 13:26:54;;;;;;;22.45;15.60;;;12.50;89.10;;;;;;4930991;29;20040;-80
2021/03/02 13:29:23;;;;;;;22.88;15.02;;;12.50;89.80;;;;;;4925060;29;20047;-79
2021/03/02 13:31:52;;;;;;;20.17;14.88;;;12.60;90.40;;;;;;4932282;29;20067;-80
2021/03/02 13:34:20;;;;;;;23.27;14.85;;;12.70;88.00;;;;;;4916861;29;20047;-80
2021/03/02 13:36:51;;;;;;;22.40;15.13;;;12.80;86.70;;;;;;4932163;29;20051;-80
2021/03/02 13:39:18;;;;;;;20.38;15.07;;;12.80;88.10;;;;;;4916489;29;20051;-80
2021/03/02 13:41:46;;;;;;;19.27;14.68;;;12.90;85.90;;;;;;4916574;29;20047;-80
2021/03/02 13:44:22;;;;;;;20.92;15.13;;;13.00;83.10;;;;;;4917049;29;20055;-80
2021/03/02 13:46:54;;;;;;;20.05;14.07;;;13.00;82.50;;;;;;4932339;29;20054;-80
2021/03/02 13:49:27;;;;;;;18.90;14.27;;;13.10;81.40;;;;;;4920233;29;20534;-80
2021/03/02 13:51:59;;;;;;;19.83;14.60;;;13.10;81.10;;;;;;4917202;29;20052;-80
2021/03/02 13:54:31;;;;;;;17.02;12.75;;;13.20;80.00;;;;;;4901576;29;20488;-80
2021/03/02 13:57:01;;;;;;;19.15;13.23;;;13.20;78.80;;;;;;4915722;29;20131;-80
2021/03/02 13:59:33;;;;;;;18.27;13.73;;;13.30;80.60;;;;;;4914715;29;20135;-80
2021/03/02 14:02:01;;;;;;;19.42;13.02;;;13.30;77.40;;;;;;4908016;29;20158;-79
2021/03/02 14:04:31;;;;;;;25.85;14.93;;;13.30;76.80;;;;;;4912986;29;20118;-81
2021/03/02 14:06:58;;;;;;;19.77;14.32;;;13.40;78.50;;;;;;4922590;29;20111;-80
2021/03/02 14:09:25;;;;;;;17.73;13.45;;;13.30;74.90;;;;;;4914342;29;20515;-79
2021/03/02 14:11:51;;;;;;;20.58;15.07;;;13.30;75.90;;;;;;4917042;29;20067;-79
2021/03/02 14:14:18;;;;;;;18.00;14.02;;;13.30;75.50;;;;;;4907229;29;20056;-80
2021/03/02 14:16:52;;;;;;;18.20;13.43;;;13.30;74.90;;;;;;4908309;29;20139;-79
2021/03/02 14:19:19;;;;;;;21.45;14.65;;;13.40;77.70;;;;;;4919560;29;20054;-79
2021/03/02 14:21:50;;;;;;;19.63;14.45;;;13.40;76.60;;;;;;4934618;29;20044;-80
2021/03/02 14:24:23;;;;;;;19.30;14.63;;;13.50;75.20;;;;;;4915481;29;20071;-80
2021/03/02 14:26:55;;;;;;;19.13;15.38;;;13.50;75.20;;;;;;4931093;29;20040;-81
2021/03/02 14:29:27;;;;;;;21.40;14.18;;;13.50;75.80;;;;;;4932724;29;20046;-79
2021/03/02 14:32:00;;;;;;;22.52;14.30;;;13.60;74.10;;;;;;4916749;29;20139;-79
2021/03/02 14:34:33;;;;;;;19.58;13.82;;;13.70;73.70;;;;;;4908799;29;20044;-81
2021/03/02 14:37:04;;;;;;;23.85;14.10;;;13.70;74.50;;;;;;4929450;29;20044;-79
2021/03/02 14:39:37;;;;;;;17.88;14.23;;;13.80;73.20;;;;;;4912564;29;20067;-79
2021/03/02 14:42:09;;;;;;;23.02;15.43;;;13.80;72.60;;;;;;4905761;29;20428;-80
2021/03/02 14:44:48;;;;;;;21.48;15.15;;;14.00;73.40;;;;;;4920483;29;20048;-79
2021/03/02 14:47:17;;;;;;;19.23;14.27;;;14.00;73.00;;;;;;4918341;29;20138;-80
2021/03/02 14:50:08;;;;;;;17.45;13.43;;;14.10;72.60;;;;;;4926014;29;20055;-79
2021/03/02 14:52:41;;;;;;;19.23;13.63;;;14.20;71.30;;;;;;4918057;29;20499;-79
2021/03/02 14:55:14;;;;;;;20.57;13.93;;;14.10;72.60;;;;;;4918678;29;20396;-79
2021/03/02 14:57:47;;;;;;;21.63;14.60;;;14.20;71.40;;;;;;4918011;29;20044;-79
2021/03/02 15:00:14;;;;;;;17.92;14.02;;;14.20;70.40;;;;;;4918461;29;20150;-79
2021/03/02 15:02:46;;;;;;;18.67;13.35;;;14.30;70.80;;;;;;4916754;29;20044;-79
2021/03/02 15:05:18;;;;;;;18.50;13.57;;;14.40;69.40;;;;;;4908472;29;20044;-78
2021/03/02 15:07:49;;;;;;;18.40;13.02;;;14.40;67.10;;;;;;4912975;29;20040;-79
2021/03/02 15:10:21;;;;;;;17.98;12.57;;;14.40;65.90;;;;;;4925169;29;20045;-79
2021/03/02 15:12:48;;;;;;;19.35;13.07;;;14.50;65.50;;;;;;4910872;29;20044;-79
2021/03/02 15:15:19;;;;;;;15.77;12.57;;;14.60;64.60;;;;;;4929217;29;20397;-79
2021/03/02 15:17:46;;;;;;;18.83;12.35;;;14.70;64.50;;;;;;4897824;29;20055;-79
2021/03/02 15:20:17;;;;;;;18.00;12.63;;;14.70;64.20;;;;;;4899377;29;20059;-79
2021/03/02 15:22:49;;;;;;;18.60;13.07;;;14.80;62.80;;;;;;4920816;29;20543;-79
2021/03/02 15:25:22;;;;;;;23.33;12.98;;;15.00;62.80;;;;;;4916520;29;20048;-80
2021/03/02 15:27:54;;;;;;;17.00;12.18;;;15.10;63.10;;;;;;4917331;29;20040;-79
2021/03/02 15:30:26;;;;;;;16.05;12.77;;;15.30;62.80;;;;;;4920618;29;20050;-80
2021/03/02 15:32:58;;;;;;;18.33;12.75;;;15.60;62.30;;;;;;4916748;29;20048;-80
2021/03/02 15:35:29;;;;;;;17.98;12.95;;;15.90;61.10;;;;;;4919548;29;20058;-79
2021/03/02 15:38:04;;;;;;;21.08;13.35;;;16.30;60.00;;;;;;4921080;29;20067;-79
2021/03/02 15:40:36;;;;;;;17.48;12.48;;;16.70;59.00;;;;;;4936698;29;20052;-79
2021/03/02 15:43:10;;;;;;;20.55;12.60;;;17.00;58.60;;;;;;4922321;29;20043;-80
2021/03/02 15:45:43;;;;;;;15.93;12.43;;;17.20;65.60;;;;;;4920295;29;20090;-80
2021/03/02 15:48:14;;;;;;;17.98;11.48;;;17.20;66.80;;;;;;4920042;29;20043;-79
2021/03/02 15:50:46;;;;;;;22.95;12.10;;;17.10;66.90;;;;;;4934864;29;20051;-79
2021/03/02 15:53:18;;;;;;;16.67;11.98;;;17.10;67.20;;;;;;4920115;29;20494;-79
2021/03/02 15:55:49;;;;;;;16.33;11.57;;;17.10;67.40;;;;;;4934190;29;20039;-79
2021/03/02 15:58:21;;;;;;;19.48;12.52;;;16.80;67.10;;;;;;4919974;29;20044;-80
2021/03/02 16:00:52;;;;;;;16.58;11.15;;;16.70;68.30;;;;;;4916282;29;20439;-80
2021/03/02 16:04:03;;;;;;;18.13;11.23;;;16.60;68.40;;;;;;4916497;29;20512;-79
2021/03/02 16:06:41;;;;;;;17.15;12.32;;;16.50;68.60;;;;;;4895313;29;20047;-80
2021/03/02 16:09:16;;;;;;;18.20;12.60;;;16.20;69.30;;;;;;4918996;29;20450;-79
2021/03/02 16:11:48;;;;;;;16.88;12.02;;;16.00;70.10;;;;;;4935119;29;20500;-79
2021/03/02 16:14:23;;;;;;;17.98;12.88;;;15.80;71.00;;;;;;4919658;29;20048;-80
2021/03/02 16:16:55;;;;;;;15.73;12.30;;;15.60;71.90;;;;;;4919876;29;20103;-79
2021/03/02 16:19:25;;;;;;;16.40;12.27;;;15.40;72.30;;;;;;4918744;29;20142;-80
2021/03/02 16:21:58;;;;;;;17.10;11.80;;;15.30;73.10;;;;;;4935696;29;20048;-80
2021/03/02 16:24:34;;;;;;;17.50;11.95;;;14.90;74.20;;;;;;4919255;29;20586;-80
2021/03/02 16:27:02;;;;;;;17.55;12.68;;;14.20;76.60;;;;;;4931766;29;20052;-80
2021/03/02 16:29:30;;;;;;;16.13;11.73;;;13.50;80.50;;;;;;4898560;29;20056;-79
2021/03/02 16:31:58;;;;;;;16.02;12.65;;;12.80;85.50;;;;;;4899300;29;20091;-80
2021/03/02 16:34:26;;;;;;;17.80;12.48;;;12.30;92.40;;;;;;4898060;29;20107;-79
2021/03/02 16:37:00;;;;;;;;;;;11.90;96.90;;;;;;4917394;29;20691;-79
2021/03/02 16:39:27;;;;;;;15.80;12.60;;;11.40;99.90;;;;;;4918881;29;19954;-80
2021/03/02 16:41:54;;;;;;;15.90;12.02;;;11.00;99.90;;;;;;4934764;29;20050;-79
2021/03/02 16:44:21;;;;;;;17.13;12.07;;;10.70;99.90;;;;;;4934505;29;20052;-79
2021/03/02 16:46:53;;;;;;;15.98;12.45;;;10.50;99.90;;;;;;4934919;29;20043;-79
2021/03/02 16:49:24;;;;;;;19.20;12.88;;;10.20;99.90;;;;;;4934792;29;20098;-79
2021/03/02 16:52:21;;;;;;;18.17;11.52;;;10.00;99.90;;;;;;4919963;29;20062;-79
2021/03/02 16:55:11;;;;;;;18.45;11.30;;;9.60;99.90;;;;;;4919052;29;20563;-76
2021/03/02 16:57:55;;;;;;;16.85;12.43;;;9.30;99.90;;;;;;4934827;29;20052;-80
2021/03/02 17:00:33;;;;;;;;;;;9.10;99.90;;;;;;4919555;29;20070;-79
2021/03/02 17:03:19;;;;;;;17.08;11.35;;;8.90;99.90;;;;;;4933998;29;20029;-79
2021/03/02 17:05:47;;;;;;;18.80;11.65;;;8.80;99.90;;;;;;4917697;29;20095;-79
2021/03/02 17:08:21;;;;;;;22.08;11.98;;;8.70;99.90;;;;;;4933199;29;20043;-79
2021/03/02 17:10:53;;;;;;;18.25;11.00;;;8.60;99.90;;;;;;4918398;29;20042;-79
2021/03/02 17:13:25;;;;;;;18.33;12.18;;;8.40;99.90;;;;;;4933942;29;20043;-77
2021/03/02 17:15:56;;;;;;;16.80;11.48;;;8.30;99.90;;;;;;4933505;29;20051;-79
2021/03/02 17:18:24;;;;;;;18.58;11.57;;;8.20;99.90;;;;;;4919113;29;20119;-79
2021/03/02 17:20:55;;;;;;;17.92;11.60;;;8.10;99.90;;;;;;4935635;29;20063;-79
2021/03/02 17:23:22;;;;;;;17.42;12.30;;;8.10;99.90;;;;;;4934987;29;20052;-78
2021/03/02 17:25:49;;;;;;;19.17;11.95;;;8.00;99.90;;;;;;4936397;29;20139;-81
2021/03/02 17:28:20;;;;;;;18.08;11.43;;;7.80;99.90;;;;;;4921788;29;20048;-80
2021/03/02 17:30:56;;;;;;;35.97;32.20;;;7.70;99.90;;;;;;4923637;29;20044;-79
2021/03/02 17:33:30;;;;;;;22.60;13.95;;;7.70;99.90;;;;;;4936482;29;20138;-79
2021/03/02 17:35:58;;;;;;;21.48;12.57;;;7.70;99.90;;;;;;4920943;29;20056;-80
2021/03/02 17:38:29;;;;;;;20.53;10.83;;;7.60;99.90;;;;;;4917141;29;20100;-78
2021/03/02 17:40:56;;;;;;;16.13;11.10;;;7.50;99.90;;;;;;4917555;29;20070;-79
2021/03/02 17:43:23;;;;;;;16.40;10.70;;;7.50;99.90;;;;;;4918442;29;20048;-80
2021/03/02 18:20:49;;;;;;;36.63;21.33;;;6.10;99.90;;;;;;5244052;23;20308;-81
2021/03/02 18:23:35;;;;;;;26.98;16.95;;;6.00;99.90;;;;;;4938475;29;20060;-81
2021/03/02 18:26:03;;;;;;;22.90;15.10;;;5.90;99.90;;;;;;4931142;29;20111;-78
2021/03/02 18:28:30;;;;;;;21.00;13.05;;;5.90;99.90;;;;;;4932501;29;20048;-79
2021/03/02 18:31:00;;;;;;;20.70;11.48;;;5.90;99.90;;;;;;4932440;29;20115;-79
2021/03/02 18:33:28;;;;;;;18.60;11.00;;;5.80;99.90;;;;;;4949006;29;20507;-79
2021/03/02 18:35:55;;;;;;;18.38;11.55;;;5.80;99.90;;;;;;4948176;29;20056;-78
2021/03/02 18:38:22;;;;;;;20.02;11.93;;;5.70;99.90;;;;;;4916292;29;20048;-78
2021/03/02 18:40:50;;;;;;;20.85;11.75;;;5.60;99.90;;;;;;4912976;29;20052;-79
2021/03/02 18:43:17;;;;;;;19.73;11.52;;;5.50;99.90;;;;;;4914609;29;20055;-79
2021/03/02 18:45:43;;;;;;;22.45;12.05;;;5.40;99.90;;;;;;4913681;29;20052;-79
2021/03/02 18:48:10;;;;;;;22.08;12.95;;;5.30;99.90;;;;;;4914230;29;20044;-79
2021/03/02 18:50:37;;;;;;;20.75;12.35;;;5.20;99.90;;;;;;4914260;29;20120;-81
2021/03/02 18:53:04;;;;;;;22.15;13.10;;;5.10;99.90;;;;;;4914964;29;20059;-82